Terminal Aerodrome Forecast
Issued by NWS Sioux Falls, SD

Home | Current Version | Previous Version | Graphics & Text | Print | Product List | Glossary On
Versions: 1 2 3 4 5 6 7 8 9 10 11 12 13 14 15 16 17 18 19 20 21 22 23 24
981
FTUS43 KFSD 251256 AAB
TAFHON
TAF AMD
KHON 251256Z 2513/2612 28013KT P6SM BKN020
     FM251500 28013KT P6SM SCT025
     FM251700 26010KT P6SM FEW250
     FM252300 19007KT P6SM FEW250=

USA.gov is the U.S. government's official web portal to all federal, state and local government web resources and services.